Etusivu
METAR-TAF:

METAR-TAF

Lentoasemat :

Marshfield Municipal Airport

Marshfield, Wisconsin, Yhdysvallat

Leveyspiiri: 44-38-17N, Pituuspiiri: 090-11-15W, korkeus merenpinnasta: 389 m

Tämänhetkinen sää

Tämä raportti tehtiin 41 minuuttia sitten, kello 09.14 UTC
Tuuli 18 kn luoteesta puuskistuen 26 kn:hen
Lämpötila -2°C
Kosteus 86%
Ilmanpaine 1010 hPa
Näkyvyys: 4.8 km
Hajonneita pilviä 1000 ft:n korkeudessa
Hajonneita pilviä 2200 ft:n korkeudessa
Pilvistä 5000 ft:n korkeudessa
heikkoa lumisadetta, utua

METAR: KMFI 180914Z AUTO 31018G26KT 3SM -SN BR BKN010 BKN022 OVC050 M02/M04 A2983 RMK AO2 PK WND 30028/0856 P0000 T10221044

Aika: 03:55 (09:55 UTC)


TAF: puuttuu

Säähavainnot ja -ennusteet yli 4000 lentoasemalta (METAR- ja TAF-raportit).

Käytössä olevat sääasemat on merkitty karttaan keltaisilla ja punaisilla pisteillä.

Aseta hiiri pisteen päälle nähdäksesi sääaseman nimen.

Klikkaa sitten nähdäksesi säähavainnot ja -ennusteet.

Kartan vaihtaminen: klikkaa mustalla rastilla varustettuja vihreitä pisteitä, niin voit zoomata sisään; viivalla varustettua vihreää pistettä, niin voit zoomata ulos tai vihreitä nuolia, niin pääset viereisille kartoille.


METAR-TAF: